.
WxDataArchive / Data Records for 2009-12-07
2009-12-06 December 2009 2009-12-08

Data Records for Monday, 07 December 2009

Time	Temp	Chill	HIndex	Humid	Dewpt	 Wind 	HiWind	WindDir	Rain 	Barom 
-----	----	-----	------	-----	-----	------	------	-------	-----	----- 
00:00	23.2	23.2	23.2	80	18.0	0	0	---	0.00	30.244 
00:05	23.0	23.0	23.0	81	18.1	0	0	---	0.00	30.244 
00:10	22.9	22.9	22.9	81	18.0	0	0	---	0.00	30.244 
00:15	22.7	22.7	22.7	81	17.8	0	0	---	0.00	30.236 
00:20	22.5	22.5	22.5	81	17.6	0	0	---	0.00	30.236 
00:25	22.4	22.4	22.4	81	17.5	0	0	---	0.00	30.236 
00:30	22.2	22.2	22.2	82	17.6	0	0	---	0.00	30.229 
00:35	22.2	22.2	22.2	82	17.6	0	0	---	0.00	30.229 
00:40	22.2	22.2	22.2	82	17.6	0	0	---	0.00	30.229 
00:45	22.2	22.2	22.2	82	17.6	0	0	---	0.00	30.222 
00:50	22.4	22.4	22.4	82	17.8	0	1	112	0.00	30.222 
00:55	22.5	22.5	22.5	82	17.9	0	0	---	0.00	30.222 
01:00	22.5	22.5	22.5	82	17.9	0	0	---	0.00	30.209 
01:05	22.5	22.5	22.5	82	17.9	0	0	---	0.00	30.209 
01:10	22.5	22.5	22.5	81	17.6	0	0	---	0.00	30.209 
01:15	22.4	22.4	22.4	82	17.8	0	0	---	0.00	30.206 
01:20	22.4	22.4	22.4	82	17.8	0	0	---	0.00	30.206 
01:25	22.4	22.4	22.4	82	17.8	0	0	---	0.00	30.206 
01:30	22.5	22.5	22.5	82	17.9	0	0	---	0.00	30.203 
01:35	22.9	22.9	22.9	82	18.2	0	0	---	0.00	30.203 
01:40	23.2	23.2	23.2	82	18.5	0	1	112	0.00	30.203 
01:45	23.3	23.3	23.3	82	18.6	0	0	---	0.00	30.203 
01:50	23.6	23.6	23.6	81	18.6	0	0	---	0.00	30.203 
01:55	23.8	23.8	23.8	81	18.8	0	0	---	0.00	30.203 
02:00	23.9	23.9	23.9	81	18.9	0	0	---	0.00	30.202 
02:05	23.9	23.9	23.9	81	18.9	0	0	---	0.00	30.202 
02:10	24.2	24.2	24.2	81	19.2	0	1	112	0.00	30.202 
02:15	24.4	24.4	24.4	80	19.1	0	0	---	0.00	30.206 
02:20	24.5	24.5	24.5	81	19.5	0	1	112	0.00	30.206 
02:25	24.7	24.7	24.7	80	19.4	0	1	112	0.00	30.206 
02:30	25.0	25.0	25.0	79	19.4	0	2	112	0.00	30.192 
02:35	25.1	25.1	25.1	79	19.5	0	1	112	0.00	30.192 
02:40	25.1	25.1	25.1	79	19.5	0	1	112	0.00	30.192 
02:45	25.3	25.3	25.3	79	19.7	0	0	---	0.00	30.197 
02:50	25.3	25.3	25.3	79	19.7	0	0	---	0.00	30.197 
02:55	25.3	25.3	25.3	79	19.7	0	0	---	0.00	30.197 
03:00	25.3	25.3	25.3	79	19.7	0	0	---	0.00	30.196 
03:05	25.3	25.3	25.3	79	19.7	0	0	---	0.00	30.196 
03:10	25.1	25.1	25.1	79	19.5	0	0	---	0.00	30.196 
03:15	25.0	25.0	25.0	79	19.4	0	0	---	0.00	30.209 
03:20	24.7	24.7	24.7	79	19.1	0	0	---	0.00	30.209 
03:25	24.5	24.5	24.5	79	18.9	0	0	---	0.00	30.209 
03:30	24.2	24.2	24.2	80	18.9	0	0	---	0.00	30.211 
03:35	24.1	24.1	24.1	80	18.8	0	0	---	0.00	30.211 
03:40	24.1	24.1	24.1	81	19.1	0	0	---	0.00	30.211 
03:45	24.1	24.1	24.1	81	19.1	0	0	---	0.00	30.202 
03:50	24.1	24.1	24.1	82	19.4	0	1	112	0.00	30.202 
03:55	24.2	24.2	24.2	82	19.5	0	1	112	0.00	30.202 
04:00	24.2	24.2	24.2	82	19.5	0	0	---	0.00	30.212 
04:05	24.4	24.4	24.4	82	19.7	0	0	---	0.00	30.212 
04:10	24.4	24.4	24.4	82	19.7	0	0	---	0.00	30.212 
04:15	24.5	24.5	24.5	82	19.8	0	1	112	0.00	30.210 
04:20	24.7	24.7	24.7	82	20.0	0	0	---	0.00	30.210 
04:25	24.7	24.7	24.7	82	20.0	0	0	---	0.00	30.210 
04:30	24.8	24.8	24.8	82	20.1	0	0	---	0.00	30.198 
04:35	25.0	25.0	25.0	81	20.0	0	0	---	0.00	30.198 
04:40	25.0	25.0	25.0	81	20.0	0	0	---	0.00	30.198 
04:45	25.1	25.1	25.1	81	20.1	0	1	112	0.00	30.196 
04:50	25.3	25.3	25.3	81	20.3	0	2	112	0.00	30.196 
04:55	25.3	25.3	25.3	81	20.3	0	2	112	0.00	30.196 
05:00	25.4	25.4	25.4	81	20.4	0	1	112	0.00	30.187 
05:05	25.4	25.4	25.4	80	20.1	0	1	112	0.00	30.187 
05:10	25.6	25.6	25.6	80	20.3	0	2	112	0.00	30.187 
05:15	25.6	25.6	25.6	80	20.3	0	0	---	0.00	30.184 
05:20	25.6	25.6	25.6	80	20.3	0	0	---	0.00	30.184 
05:25	25.7	25.7	25.7	80	20.4	0	1	112	0.00	30.184 
05:30	25.7	25.7	25.7	80	20.4	0	1	112	0.00	30.189 
05:35	25.7	25.7	25.7	80	20.4	0	1	112	0.00	30.189 
05:40	25.8	25.8	25.8	80	20.5	0	1	112	0.00	30.189 
05:45	25.8	25.8	25.8	80	20.5	0	1	135	0.00	30.175 
05:50	25.8	25.8	25.8	80	20.5	0	1	135	0.00	30.175 
05:55	25.8	25.8	25.8	80	20.5	0	1	135	0.00	30.175 
06:00	25.8	25.8	25.8	80	20.5	0	2	135	0.00	30.173 
06:05	26.0	26.0	26.0	80	20.7	0	0	---	0.00	30.173 
06:10	26.0	26.0	26.0	80	20.7	0	0	---	0.00	30.173 
06:15	26.0	26.0	26.0	81	21.0	0	1	135	0.00	30.182 
06:20	26.0	26.0	26.0	82	21.3	0	1	135	0.00	30.182 
06:25	26.0	26.0	26.0	83	21.6	0	1	135	0.00	30.182 
06:30	26.0	26.0	26.0	84	21.8	0	1	135	0.00	30.175 
06:35	26.0	26.0	26.0	85	22.1	0	1	135	0.00	30.175 
06:40	26.0	26.0	26.0	85	22.1	0	2	135	0.00	30.175 
06:45	26.0	26.0	26.0	86	22.4	0	1	135	0.00	30.171 
06:50	26.0	26.0	26.0	87	22.7	0	1	135	0.00	30.171 
06:55	26.0	26.0	26.0	87	22.7	0	2	135	0.00	30.171 
07:00	26.0	26.0	26.0	88	22.9	0	1	135	0.00	30.173 
07:05	26.0	26.0	26.0	88	22.9	0	2	135	0.00	30.173 
07:10	26.0	26.0	26.0	88	22.9	0	2	135	0.00	30.173 
07:15	26.0	26.0	26.0	89	23.2	0	1	135	0.00	30.174 
07:20	26.0	26.0	26.0	89	23.2	0	1	135	0.00	30.174 
07:25	26.1	26.1	26.1	89	23.3	0	2	135	0.00	30.174 
07:30	26.1	26.1	26.1	89	23.3	0	1	135	0.00	30.160 
07:35	26.1	26.1	26.1	90	23.6	0	1	135	0.00	30.160 
07:40	26.1	26.1	26.1	90	23.6	0	1	135	0.00	30.160 
07:45	26.1	26.1	26.1	90	23.6	0	0	---	0.00	30.160 
07:50	26.1	26.1	26.1	90	23.6	0	0	---	0.00	30.160 
07:55	26.1	26.1	26.1	90	23.6	0	0	---	0.00	30.160 
08:00	26.1	26.1	26.1	90	23.6	0	1	135	0.00	30.163 
08:05	26.1	26.1	26.1	90	23.6	0	0	---	0.00	30.163 
08:10	26.1	26.1	26.1	90	23.6	0	0	---	0.00	30.163 
08:15	26.3	26.3	26.3	90	23.8	0	0	---	0.00	30.159 
08:20	26.3	26.3	26.3	90	23.8	0	0	---	0.00	30.159 
08:25	26.3	26.3	26.3	90	23.8	0	1	135	0.00	30.159 
08:30	26.4	26.4	26.4	90	23.9	0	0	---	0.00	30.160 
08:35	26.4	26.4	26.4	90	23.9	0	1	135	0.00	30.160 
08:40	26.4	26.4	26.4	91	24.1	0	1	135	0.00	30.160 
08:45	26.6	26.6	26.6	91	24.3	0	0	---	0.00	30.165 
08:50	26.6	26.6	26.6	91	24.3	0	1	135	0.00	30.165 
08:55	26.6	26.6	26.6	91	24.3	0	1	135	0.00	30.165 
09:00	26.6	26.6	26.6	91	24.3	0	2	135	0.00	30.173 
09:05	26.7	26.7	26.7	91	24.4	0	1	135	0.00	30.173 
09:10	26.7	26.7	26.7	91	24.4	0	0	---	0.00	30.173 
09:15	26.9	26.9	26.9	91	24.6	0	2	135	0.00	30.174 
09:20	26.9	26.9	26.9	91	24.6	0	0	---	0.00	30.174 
09:25	27.0	27.0	27.0	91	24.7	0	0	---	0.00	30.174 
09:30	27.2	27.2	27.2	91	24.9	0	1	135	0.00	30.174 
09:35	27.2	27.2	27.2	91	24.9	0	1	135	0.00	30.174 
09:40	27.3	27.3	27.3	91	25.0	0	1	135	0.00	30.174 
09:45	27.3	27.3	27.3	91	25.0	0	1	135	0.00	30.175 
09:50	27.5	27.5	27.5	91	25.2	0	2	135	0.00	30.175 
09:55	27.6	27.6	27.6	91	25.3	0	1	158	0.00	30.175 
10:00	27.6	27.6	27.6	91	25.3	0	1	158	0.00	30.174 
10:05	27.8	27.8	27.8	91	25.5	0	1	158	0.00	30.174 
10:10	27.8	27.8	27.8	90	25.3	1	2	270	0.00	30.174 
10:15	27.9	27.9	27.9	90	25.4	0	2	270	0.00	30.175 
10:20	27.9	27.9	27.9	90	25.4	0	3	270	0.00	30.175 
10:25	28.1	28.1	28.1	90	25.6	0	2	248	0.00	30.175 
10:30	28.2	28.2	28.2	90	25.7	0	1	248	0.00	30.175 
10:35	28.4	28.4	28.4	90	25.8	0	2	248	0.00	30.175 
10:40	28.5	28.5	28.5	90	25.9	0	2	248	0.00	30.175 
10:45	28.7	28.7	28.7	90	26.1	1	3	248	0.00	30.176 
10:50	28.7	28.7	28.7	89	25.9	0	2	248	0.00	30.176 
10:55	28.8	28.8	28.8	89	26.0	0	2	248	0.00	30.176 
11:00	28.8	28.8	28.8	89	26.0	1	3	270	0.00	30.174 
11:05	29.1	29.1	29.1	89	26.3	0	2	248	0.00	30.174 
11:10	29.3	29.3	29.3	89	26.5	0	2	248	0.00	30.174 
11:15	29.4	29.4	29.4	88	26.3	0	2	248	0.00	30.176 
11:20	29.5	29.5	29.5	88	26.4	0	1	248	0.00	30.176 
11:25	29.8	29.8	29.8	88	26.7	0	2	248	0.00	30.176 
11:30	29.8	29.8	29.8	88	26.7	0	2	248	0.00	30.178 
11:35	30.0	30.0	30.0	88	26.9	0	2	248	0.00	30.178 
11:40	30.0	30.0	30.0	87	26.6	1	3	248	0.00	30.178 
11:45	30.0	30.0	30.0	87	26.6	0	2	248	0.00	30.174 
11:50	30.1	30.1	30.1	87	26.7	1	3	248	0.00	30.174 
11:55	30.1	30.1	30.1	87	26.7	1	4	270	0.00	30.174 
12:00	30.1	30.1	30.1	87	26.7	1	4	248	0.00	30.176 
12:05	30.1	30.1	30.1	86	26.4	1	5	248	0.00	30.176 
12:10	30.1	30.1	30.1	86	26.4	1	3	248	0.00	30.176 
12:15	30.1	30.1	30.1	86	26.4	1	4	248	0.00	30.175 
12:20	30.1	30.1	30.1	87	26.7	1	3	248	0.00	30.175 
12:25	30.3	30.3	30.3	87	26.9	0	2	248	0.00	30.175 
12:30	30.3	30.3	30.3	87	26.9	1	4	248	0.01	30.175 
12:35	30.4	30.4	30.4	87	27.0	1	3	248	0.00	30.175 
12:40	30.3	30.3	30.3	87	26.9	1	3	248	0.00	30.175 
12:45	30.3	30.3	30.3	87	26.9	1	7	248	0.00	30.177 
12:50	30.3	30.3	30.3	87	26.9	1	5	225	0.00	30.177 
12:55	30.3	30.3	30.3	87	26.9	1	2	225	0.00	30.177 
13:00	30.3	30.3	30.3	88	27.2	1	3	270	0.00	30.177 
13:05	30.3	30.3	30.3	88	27.2	1	4	248	0.00	30.177 
13:10	30.3	30.3	30.3	88	27.2	1	3	248	0.00	30.177 
13:15	30.3	30.3	30.3	88	27.2	1	5	248	0.00	30.174 
13:20	30.3	30.3	30.3	88	27.2	0	2	248	0.00	30.174 
13:25	30.3	30.3	30.3	88	27.2	1	4	248	0.00	30.174 
13:30	30.3	30.3	30.3	88	27.2	1	3	248	0.00	30.169 
13:35	30.3	30.3	30.3	88	27.2	1	5	248	0.00	30.169 
13:40	30.4	30.4	30.4	88	27.3	0	3	270	0.00	30.169 
13:45	30.6	30.6	30.6	89	27.8	1	3	248	0.00	30.167 
13:50	30.6	30.6	30.6	88	27.5	0	2	248	0.00	30.167 
13:55	30.6	30.6	30.6	88	27.5	1	3	248	0.00	30.167 
14:00	30.7	30.7	30.7	88	27.6	1	4	248	0.00	30.173 
14:05	30.7	30.7	30.7	88	27.6	1	4	248	0.00	30.173 
14:10	30.9	30.9	30.9	88	27.8	1	5	248	0.00	30.173 
14:15	30.9	30.9	30.9	88	27.8	1	2	248	0.00	30.171 
14:20	30.9	30.9	30.9	88	27.8	1	3	248	0.00	30.171 
14:25	30.9	30.9	30.9	88	27.8	1	2	248	0.00	30.171 
14:30	31.0	31.0	31.0	88	27.9	1	4	248	0.00	30.174 
14:35	31.0	31.0	31.0	88	27.9	2	7	248	0.00	30.174 
14:40	31.0	31.0	31.0	88	27.9	1	4	248	0.00	30.174 
14:45	31.0	31.0	31.0	88	27.9	1	4	292	0.00	30.184 
14:50	31.0	31.0	31.0	88	27.9	1	5	248	0.00	30.184 
14:55	31.2	31.2	31.2	88	28.1	1	4	248	0.00	30.184 
15:00	31.2	31.2	31.2	88	28.1	2	6	248	0.00	30.193 
15:05	31.2	31.2	31.2	88	28.1	1	4	248	0.00	30.193 
15:10	31.3	31.3	31.3	88	28.2	2	5	248	0.00	30.193 
15:15	31.3	31.3	31.3	87	27.9	1	4	248	0.00	30.205 
15:20	31.5	31.5	31.5	87	28.1	1	3	248	0.00	30.205 
15:25	31.5	31.5	31.5	87	28.1	2	4	248	0.00	30.205 
15:30	31.5	31.5	31.5	87	28.1	1	5	248	0.00	30.205 
15:35	31.6	31.6	31.6	87	28.2	1	3	248	0.00	30.205 
15:40	31.6	31.6	31.6	87	28.2	1	5	248	0.00	30.205 
15:45	31.8	31.8	31.8	86	28.1	1	2	248	0.00	30.217 
15:50	31.8	31.8	31.8	86	28.1	1	5	248	0.00	30.217 
15:55	31.8	31.8	31.8	86	28.1	1	4	248	0.00	30.217 
16:00	31.8	31.8	31.8	86	28.1	1	3	248	0.00	30.223 
16:05	31.9	31.9	31.9	86	28.2	1	4	248	0.00	30.223 
16:10	31.9	31.9	31.9	86	28.2	0	3	248	0.00	30.223 
16:15	31.8	31.8	31.8	85	27.8	1	4	248	0.00	30.232 
16:20	31.8	31.8	31.8	85	27.8	1	3	292	0.00	30.232 
16:25	31.8	31.8	31.8	85	27.8	1	4	248	0.00	30.232 
16:30	31.8	31.8	31.8	85	27.8	1	3	248	0.00	30.231 
16:35	31.8	31.8	31.8	85	27.8	1	3	248	0.00	30.231 
16:40	31.8	31.8	31.8	84	27.5	0	3	248	0.00	30.231 
16:45	31.8	31.8	31.8	84	27.5	1	4	248	0.00	30.237 
16:50	31.8	31.8	31.8	84	27.5	1	3	248	0.00	30.237 
16:55	31.9	31.9	31.9	84	27.6	1	3	248	0.00	30.237 
17:00	31.9	31.9	31.9	84	27.6	2	5	248	0.00	30.249 
17:05	31.8	31.8	31.8	84	27.5	1	3	248	0.00	30.249 
17:10	31.8	31.8	31.8	84	27.5	1	3	248	0.00	30.249 
17:15	31.8	31.8	31.8	84	27.5	0	2	248	0.00	30.250 
17:20	31.6	31.6	31.6	84	27.3	1	3	248	0.00	30.250 
17:25	31.6	31.6	31.6	84	27.3	1	3	248	0.00	30.250 
17:30	31.6	31.6	31.6	84	27.3	0	3	248	0.00	30.259 
17:35	31.6	31.6	31.6	84	27.3	0	2	248	0.00	30.259 
17:40	31.6	31.6	31.6	84	27.3	0	2	248	0.00	30.259 
17:45	31.6	31.6	31.6	85	27.6	0	0	---	0.00	30.262 
17:50	31.5	31.5	31.5	85	27.5	0	2	248	0.00	30.262 
17:55	31.5	31.5	31.5	85	27.5	0	3	248	0.00	30.262 
18:00	31.5	31.5	31.5	85	27.5	0	1	248	0.00	30.265 
18:05	31.5	31.5	31.5	85	27.5	0	1	248	0.00	30.265 
18:10	31.3	31.3	31.3	85	27.3	0	3	248	0.00	30.265 
18:15	31.3	31.3	31.3	85	27.3	0	1	248	0.00	30.275 
18:20	31.2	31.2	31.2	85	27.2	0	1	248	0.00	30.275 
18:25	30.9	30.9	30.9	85	26.9	0	0	---	0.00	30.275 
18:30	30.7	30.7	30.7	85	26.7	0	1	248	0.00	30.284 
18:35	30.6	30.6	30.6	85	26.6	0	0	---	0.00	30.284 
18:40	30.4	30.4	30.4	85	26.4	0	1	248	0.00	30.284 
18:45	30.3	30.3	30.3	86	26.6	0	2	248	0.00	30.292 
18:50	30.1	30.1	30.1	86	26.4	0	1	248	0.00	30.292 
18:55	30.0	30.0	30.0	86	26.3	0	2	248	0.00	30.292 
19:00	30.0	30.0	30.0	86	26.3	0	2	248	0.00	30.299 
19:05	29.7	29.7	29.7	86	26.0	0	0	---	0.00	30.299 
19:10	29.5	29.5	29.5	86	25.8	0	0	---	0.00	30.299 
19:15	29.4	29.4	29.4	87	26.0	0	0	---	0.00	30.302 
19:20	29.3	29.3	29.3	87	25.9	0	0	---	0.00	30.302 
19:25	29.1	29.1	29.1	87	25.7	0	1	248	0.00	30.302 
19:30	29.1	29.1	29.1	87	25.7	0	0	---	0.00	30.311 
19:35	29.1	29.1	29.1	88	26.0	0	0	---	0.00	30.311 
19:40	29.1	29.1	29.1	88	26.0	0	1	248	0.00	30.311 
19:45	29.1	29.1	29.1	88	26.0	0	1	248	0.00	30.313 
19:50	29.3	29.3	29.3	88	26.2	0	0	---	0.00	30.313 
19:55	29.3	29.3	29.3	88	26.2	0	0	---	0.00	30.313 
20:00	29.3	29.3	29.3	88	26.2	0	0	---	0.00	30.304 
20:05	29.3	29.3	29.3	89	26.5	0	1	248	0.00	30.304 
20:10	29.1	29.1	29.1	89	26.3	0	1	248	0.00	30.304 
20:15	29.0	29.0	29.0	89	26.2	0	0	---	0.00	30.311 
20:20	28.8	28.8	28.8	89	26.0	0	0	---	0.00	30.311 
20:25	28.7	28.7	28.7	89	25.9	0	1	248	0.00	30.311 
20:30	28.4	28.4	28.4	89	25.6	0	0	---	0.00	30.305 
20:35	28.2	28.2	28.2	89	25.4	0	0	---	0.00	30.305 
20:40	27.9	27.9	27.9	89	25.1	0	0	---	0.00	30.305 
20:45	27.6	27.6	27.6	89	24.8	0	0	---	0.00	30.304 
20:50	27.3	27.3	27.3	89	24.5	0	0	---	0.00	30.304 
20:55	27.2	27.2	27.2	89	24.4	0	0	---	0.00	30.304 
21:00	26.9	26.9	26.9	89	24.1	0	0	---	0.00	30.310 
21:05	26.7	26.7	26.7	89	23.9	0	0	---	0.00	30.310 
21:10	26.7	26.7	26.7	89	23.9	0	0	---	0.00	30.310 
21:15	26.6	26.6	26.6	90	24.1	0	1	248	0.00	30.311 
21:20	26.6	26.6	26.6	90	24.1	0	1	248	0.00	30.311 
21:25	26.7	26.7	26.7	90	24.2	0	1	248	0.00	30.311 
21:30	26.7	26.7	26.7	90	24.2	0	1	248	0.00	30.316 
21:35	26.7	26.7	26.7	91	24.4	0	1	248	0.00	30.316 
21:40	26.7	26.7	26.7	91	24.4	0	1	248	0.00	30.316 
21:45	26.6	26.6	26.6	90	24.1	0	0	---	0.00	30.317 
21:50	26.6	26.6	26.6	91	24.3	0	0	---	0.00	30.317 
21:55	26.6	26.6	26.6	91	24.3	0	2	248	0.00	30.317 
22:00	26.7	26.7	26.7	91	24.4	0	0	---	0.00	30.319 
22:05	26.7	26.7	26.7	91	24.4	0	2	248	0.00	30.319 
22:10	26.9	26.9	26.9	92	24.9	0	1	248	0.00	30.319 
22:15	27.0	27.0	27.0	92	25.0	0	2	248	0.00	30.324 
22:20	27.0	27.0	27.0	92	25.0	0	1	248	0.00	30.324 
22:25	27.0	27.0	27.0	92	25.0	0	0	---	0.00	30.324 
22:30	27.0	27.0	27.0	91	24.7	0	1	248	0.00	30.327 
22:35	27.0	27.0	27.0	91	24.7	0	1	248	0.00	30.327 
22:40	26.9	26.9	26.9	91	24.6	0	0	---	0.00	30.327 
22:45	26.7	26.7	26.7	91	24.4	0	0	---	0.00	30.321 
22:50	26.6	26.6	26.6	91	24.3	0	0	---	0.00	30.321 
22:55	26.4	26.4	26.4	91	24.1	0	0	---	0.00	30.321 
23:00	26.3	26.3	26.3	91	24.0	0	0	---	0.00	30.330 
23:05	26.1	26.1	26.1	91	23.8	0	0	---	0.00	30.330 
23:10	26.0	26.0	26.0	91	23.7	0	0	---	0.00	30.330 
23:15	25.8	25.8	25.8	91	23.5	0	0	---	0.00	30.329 
23:20	25.7	25.7	25.7	91	23.4	0	0	---	0.00	30.329 
23:25	25.4	25.4	25.4	91	23.1	0	0	---	0.00	30.329 
23:30	25.3	25.3	25.3	91	23.0	0	0	---	0.00	30.327 
23:35	25.1	25.1	25.1	91	22.9	0	0	---	0.00	30.327 
23:40	25.1	25.1	25.1	92	23.1	0	0	---	0.00	30.327 
23:45	25.1	25.1	25.1	91	22.9	0	0	---	0.00	30.326 
23:50	25.1	25.1	25.1	92	23.1	0	0	---	0.00	30.326 
23:55	25.1	25.1	25.1	92	23.1	0	0	---	0.00	30.326 

CoCoRaHS
IN-AL-39
A2 Web Hosting
Creative Commons License
GoDaddy
search engine by freefind advanced

loaded 2018-11-19 19:32:03 • last modified 2010-11-18 10:43:29
Privacy PolicyDisclaimer
• wx.awcolley.com is powered by PmWiki v.2002016 •
• all content (unless otherwise noted) © 2018 A W Colley